Grandview, Ohio
Current Conditions -  °F | °C
As of 10:53 PM on Friday 24 Oct 2014 (Local Time) from KOSU Reporting Station
Haze Haze  
Wind Chill: 49°   Ceiling: Unl
Heat Index: 49°   Visibility: 5mi
Dew Point: 38°   Wind: 3mph
Humidity: 66%   Direction: 250°WSW
Pressure: 30.02"   Gusts: NA
Location:  39.987°N, 83.0425°W
Report Text: KOSU 250253Z 25003KT 5SM HZ CLR 09/03 A3002 RMK AO2 SLP168 T00940033 51000
Loading
Personal Weather Stations






























Interactive Weather Map
Tropical Storm Tracking
New forecast layout! Learn more

10-Day Weather Forecast

Advertisements
Track Severe Weather on mobile